KHYA/HYA METAR and TAF weather

Enter ICAO airport designator
Station Type Date Time Source
KHYA METAR 2019/07/18 11:16 UTC NOAA

KHYA 181116Z 21008G16KT 2SM -RA BR BKN030 OVC070 24/22 A2993 RMK AO2 RAB1058 P0004 T02390217 $


Station Type Date Time Source
KHYA Decoded METAR 2019/07/18 11:16 UTC NOAA

HYANNIS BARNSTABLE BOARDMN, MA, United States (KHYA) 41-40N 070-16W 22M
Jul 18, 2019 - 07:16 AM EDT / 2019.07.18 1116 UTC
Wind: from the SSW (210 degrees) at 9 MPH (8 KT) gusting to 18 MPH (16 KT):0
Visibility: 2 mile(s):0
Sky conditions: overcast
Weather: light rain; mist
Precipitation last hour: 0.04 inches
Temperature: 75.0 F (23.9 C)
Dew Point: 71.1 F (21.7 C)
Relative Humidity: 87%
Pressure (altimeter): 29.93 in. Hg (1013 hPa)
ob: KHYA 181116Z 21008G16KT 2SM -RA BR BKN030 OVC070 24/22 A2993 RMK AO2 RAB1058 P0004 T02390217
cycle: 11

Station Type Date Time Source
KHYA TAF 2019/07/18 12:24 UTC NOAA

TAF KHYA 181123Z 1812/1912 10005KT 5SM -SHRA BR FEW015 OVC060
FM181500 06006KT 6SM -SHRA BR OVC020
FM181800 04006KT 6SM -SHRA BR OVC010
FM190200 01003KT 4SM BR OVC003
FM190700 01003KT 1 1/2SM BR OVC003

Example: see airport list